Pagina principale
METAR-TAF:

METAR-TAF

Aeroporti :

Aeroporto di Maribor-Orehova Vas

Maribor, Slovenia

latitudine: 46-29N, longitudine: 015-41E, altezza: 264 m

Osservazione

Il bollettino è stato emesso 22 minuti fa, alle 12:00 UTC
Vento 2 kt da direzioni variabili
Temperature 17°C
Umidità 94%
Pressione 1018 hPa
Visibilità 10 km o più
Nubi sparse ad un'altezza di 600 ft
Nuvoloso ad un'altezza di 3300 ft
Cielo coperto ad un'altezza di 5900 ft
pioggia debole

METAR: LJMB 271200Z VRB02KT 9999 -RA SCT006 BKN033 OVC059 17/16 Q1018

Ora: 14:22 (12:22 UTC)

Previsione

Il bollettino è stato emesso 1 ora e 22 minuti fa, alle 11:00 UTC
Previsione valida dal 27 alle 12 UTC al 28 alle 12 UTC
Vento 4 kt da nord
Visibilità 10 km o più
Nubi sparse ad un'altezza di 3000 ft
Probabilità 30% :
Temporaneamente
dal 27 alle 12 UTC al 27 alle 15 UTC
Nubi sparse ad un'altezza di 4500 ft, Cumulo congesto.

TAF: LJMB 271100Z 2712/2812 36004KT 9999 SCT030 PROB30 TEMPO 2712/2715 SCT045TCU

Osservazioni e previsioni meteorologiche di più di 4000 aeroporti (messaggi METAR e TAF).

Le stazioni disponibili sono rappresentate dai dischi gialli e rossi sulla carta.

Puntare il mouse per vedere il nome della stazione.

Clicca sopra per visualizzare le osservazioni e previsioni meteorologiche.

Per cambiare la mappa : fare clic sui pulsanti verdi con una croce nera per ingrandire, il pulsante verde con un trattino per diminuire, o sulla freccia verde per le mappe adiacenti.


METAR-TAF: